createdAt,value
2023-02-22T00:01:35.918Z,1.00
2023-02-22T00:04:05.330Z,1.05
2023-02-22T00:06:32.866Z,2.38
2023-02-22T00:09:02.495Z,1.52
2023-02-22T00:11:31.667Z,1.73
2023-02-22T00:13:58.538Z,1.13
2023-02-22T00:16:26.771Z,1.20
2023-02-22T00:18:54.169Z,1.30
2023-02-22T00:21:21.372Z,1.40
2023-02-22T00:23:49.030Z,0.98
2023-02-22T00:26:18.567Z,0.85
2023-02-22T00:28:51.002Z,0.73
2023-02-22T00:31:18.921Z,0.30
2023-02-22T00:33:46.289Z,0.40
2023-02-22T00:36:13.743Z,0.40
2023-02-22T00:38:41.914Z,0.35
2023-02-22T00:41:09.410Z,0.45
2023-02-22T00:43:36.227Z,0.40
2023-02-22T00:46:03.060Z,0.77
2023-02-22T00:48:29.854Z,0.50
2023-02-22T00:50:56.665Z,0.50
2023-02-22T00:53:24.615Z,0.60
2023-02-22T00:55:52.030Z,0.80
2023-02-22T00:58:18.849Z,0.60
2023-02-22T01:00:46.538Z,0.45
2023-02-22T01:03:15.462Z,0.30
2023-02-22T01:05:43.069Z,0.40
2023-02-22T01:08:13.043Z,0.90
2023-02-22T01:10:40.724Z,0.40
2023-02-22T01:13:09.587Z,0.22
2023-02-22T01:15:38.161Z,0.50
2023-02-22T01:18:05.382Z,0.38
2023-02-22T01:20:32.727Z,1.20
2023-02-22T01:23:01.430Z,0.93
2023-02-22T01:25:30.680Z,0.93
2023-02-22T01:28:02.659Z,0.52
2023-02-22T01:30:33.328Z,0.82
2023-02-22T01:33:02.095Z,0.30
2023-02-22T01:35:32.921Z,0.50
2023-02-22T01:37:59.756Z,0.50
2023-02-22T01:40:33.375Z,0.93
2023-02-22T01:43:16.169Z,0.50
2023-02-22T01:45:50.245Z,0.60
2023-02-22T01:48:40.963Z,0.82
2023-02-22T01:51:30.067Z,0.80
2023-02-22T01:54:04.868Z,2.00
2023-02-22T01:56:34.617Z,0.63
2023-02-22T01:59:10.381Z,0.80
2023-02-22T02:01:40.098Z,0.68
2023-02-22T02:04:13.142Z,1.02
2023-02-22T02:06:42.438Z,0.40
2023-02-22T02:09:20.627Z,0.77
2023-02-22T02:11:48.639Z,0.85
2023-02-22T02:14:15.734Z,0.70
2023-02-22T02:16:46.258Z,0.60
2023-02-22T02:19:22.447Z,0.70
2023-02-22T02:22:21.354Z,1.40
2023-02-22T02:25:06.880Z,0.50
2023-02-22T02:27:55.222Z,1.15
2023-02-22T02:31:07.856Z,1.25
2023-02-22T02:33:38.092Z,0.63
2023-02-22T02:36:30.453Z,1.20
2023-02-22T02:39:25.922Z,0.73
2023-02-22T02:41:53.118Z,0.70
2023-02-22T02:44:41.622Z,0.65
2023-02-22T02:47:46.442Z,0.80
2023-02-22T02:50:24.968Z,1.23
2023-02-22T02:52:55.574Z,0.85
2023-02-22T02:55:22.655Z,2.00
2023-02-22T02:57:49.368Z,0.50
2023-02-22T03:03:31.233Z,1.55
2023-02-22T03:06:05.242Z,1.10
2023-02-22T03:08:57.282Z,0.93
2023-02-22T03:11:48.657Z,0.88
2023-02-22T03:14:25.417Z,0.88
2023-02-22T03:17:02.077Z,1.55
2023-02-22T03:19:28.770Z,0.80
2023-02-22T03:21:58.532Z,0.88
2023-02-22T03:24:37.506Z,0.60
2023-02-22T03:27:21.863Z,1.08
2023-02-22T03:29:52.018Z,0.82
2023-02-22T03:32:25.862Z,0.80
2023-02-22T03:35:06.670Z,0.90
2023-02-22T03:37:38.374Z,0.73
2023-02-22T03:40:17.568Z,1.40
2023-02-22T03:42:51.997Z,0.80
2023-02-22T03:45:21.319Z,0.82
2023-02-22T03:47:51.831Z,0.80
2023-02-22T03:50:22.250Z,1.05
2023-02-22T03:52:49.262Z,0.82
2023-02-22T03:55:17.862Z,1.00
2023-02-22T03:57:51.624Z,1.15
2023-02-22T04:00:26.600Z,0.60
2023-02-22T04:02:53.531Z,0.70
2023-02-22T04:05:20.363Z,0.80
2023-02-22T04:07:47.137Z,0.65
2023-02-22T04:10:16.157Z,0.50
2023-02-22T04:12:43.899Z,0.63
2023-02-22T04:15:15.631Z,0.40
2023-02-22T04:17:42.489Z,0.73
2023-02-22T04:20:10.175Z,0.40
2023-02-22T04:22:36.826Z,0.57
2023-02-22T04:25:03.600Z,0.60
2023-02-22T04:27:30.338Z,0.25
2023-02-22T04:29:57.057Z,1.10
2023-02-22T04:32:23.842Z,0.45
2023-02-22T04:34:50.555Z,0.45
2023-02-22T04:37:17.293Z,0.20
2023-02-22T04:39:44.088Z,0.20
2023-02-22T04:42:10.839Z,0.30
2023-02-22T04:44:37.601Z,0.50
2023-02-22T04:47:04.425Z,0.35
2023-02-22T04:49:31.106Z,0.45
2023-02-22T04:51:57.794Z,0.35
2023-02-22T04:54:24.534Z,0.50
2023-02-22T04:56:52.256Z,1.05
2023-02-22T04:59:19.882Z,0.73
2023-02-22T05:01:46.751Z,0.50
2023-02-22T05:04:13.487Z,0.38
2023-02-22T05:06:40.536Z,0.60
2023-02-22T05:09:07.291Z,0.40
2023-02-22T05:11:34.131Z,0.32
2023-02-22T05:14:00.970Z,0.30
2023-02-22T05:16:27.961Z,0.52
2023-02-22T05:18:54.705Z,0.30
2023-02-22T05:21:21.583Z,0.45
2023-02-22T05:23:49.503Z,0.40
2023-02-22T05:26:16.329Z,0.40
2023-02-22T05:28:43.032Z,0.25
2023-02-22T05:31:09.886Z,0.50
2023-02-22T05:33:36.716Z,0.35
2023-02-22T05:36:04.686Z,0.30
2023-02-22T05:38:31.411Z,0.40
2023-02-22T05:40:58.172Z,0.40
2023-02-22T05:43:25.940Z,0.20
2023-02-22T05:45:52.677Z,0.35
2023-02-22T05:48:21.274Z,0.32
2023-02-22T05:50:50.005Z,0.30
2023-02-22T05:53:16.784Z,0.40
2023-02-22T05:55:45.588Z,0.30
2023-02-22T05:58:13.093Z,0.50
2023-02-22T06:00:39.817Z,1.40
2023-02-22T06:03:08.657Z,0.50
2023-02-22T06:05:36.294Z,0.35
2023-02-22T06:08:04.509Z,0.50
2023-02-22T06:10:31.451Z,0.40
2023-02-22T06:12:59.365Z,0.57
2023-02-22T06:15:27.519Z,0.50
2023-02-22T06:17:56.543Z,0.40
2023-02-22T06:20:24.605Z,0.45
2023-02-22T06:22:54.177Z,0.13
2023-02-22T06:25:24.292Z,0.40
2023-02-22T06:27:51.465Z,0.82
2023-02-22T06:30:21.475Z,0.70
2023-02-22T06:32:48.293Z,0.40
2023-02-22T06:35:15.772Z,0.90
2023-02-22T06:37:42.567Z,0.60
2023-02-22T06:40:11.370Z,0.90
2023-02-22T06:42:38.971Z,0.43
2023-02-22T06:45:06.048Z,0.55
2023-02-22T06:47:32.819Z,0.40
2023-02-22T06:50:01.070Z,0.82
2023-02-22T06:52:27.782Z,0.73
2023-02-22T06:54:54.554Z,0.60
2023-02-22T06:57:21.366Z,0.32
2023-02-22T06:59:48.077Z,0.32
2023-02-22T07:02:15.080Z,0.47
2023-02-22T07:04:45.565Z,0.22
2023-02-22T07:07:12.280Z,0.57
2023-02-22T07:09:39.041Z,0.68
2023-02-22T07:12:05.846Z,1.05
2023-02-22T07:14:32.589Z,0.50
2023-02-22T07:16:59.282Z,0.43
2023-02-22T07:19:26.032Z,0.38
2023-02-22T07:21:59.309Z,0.30
2023-02-22T07:24:28.621Z,0.93
2023-02-22T07:26:55.446Z,0.50
2023-02-22T07:29:22.621Z,0.35
2023-02-22T07:31:49.675Z,0.45
2023-02-22T07:34:16.540Z,0.40
2023-02-22T07:36:43.397Z,0.50
2023-02-22T07:39:11.191Z,0.30
2023-02-22T07:41:37.916Z,0.60
2023-02-22T07:44:04.942Z,0.25
2023-02-22T07:46:31.681Z,0.50
2023-02-22T07:48:58.381Z,0.40
2023-02-22T07:51:25.207Z,0.50
2023-02-22T07:53:51.916Z,0.50
2023-02-22T07:56:18.836Z,0.50
2023-02-22T07:58:45.638Z,0.32
2023-02-22T08:01:12.362Z,0.68
2023-02-22T08:03:39.127Z,0.50
2023-02-22T08:06:07.688Z,0.35
2023-02-22T08:08:34.608Z,0.43
2023-02-22T08:11:01.756Z,0.63
2023-02-22T08:13:28.582Z,0.47
2023-02-22T08:15:56.157Z,1.70
2023-02-22T08:18:24.768Z,0.90
2023-02-22T08:20:53.059Z,0.63
2023-02-22T08:23:22.658Z,0.98
2023-02-22T08:25:49.402Z,0.80
2023-02-22T08:28:18.132Z,0.50
2023-02-22T08:30:44.919Z,0.60
2023-02-22T08:33:14.697Z,0.60
2023-02-22T08:35:41.733Z,0.40
2023-02-22T08:38:17.590Z,0.90
2023-02-22T08:40:44.333Z,0.65
2023-02-22T08:43:11.326Z,0.90
2023-02-22T08:45:38.638Z,0.90
2023-02-22T08:48:05.552Z,1.77
2023-02-22T08:50:36.350Z,2.60
2023-02-22T08:53:05.436Z,0.80
2023-02-22T08:55:35.334Z,0.70
2023-02-22T08:58:03.262Z,1.70
2023-02-22T09:00:33.430Z,0.95
2023-02-22T09:03:03.560Z,0.70
2023-02-22T09:05:31.701Z,0.75
2023-02-22T09:07:59.328Z,0.70
2023-02-22T09:10:29.521Z,3.03
2023-02-22T09:12:56.776Z,1.88
2023-02-22T09:15:25.486Z,0.73
2023-02-22T09:17:53.314Z,1.10
2023-02-22T09:20:21.681Z,0.82
2023-02-22T09:22:49.278Z,1.10
2023-02-22T09:25:18.327Z,0.85
2023-02-22T09:27:48.352Z,0.90
2023-02-22T09:30:32.225Z,0.82
2023-02-22T09:33:10.646Z,0.85
2023-02-22T09:35:42.441Z,1.20
2023-02-22T09:38:11.527Z,1.35
2023-02-22T09:40:45.654Z,1.00
2023-02-22T09:43:36.742Z,1.45
2023-02-22T09:46:36.129Z,1.08
2023-02-22T09:49:21.497Z,1.55
2023-02-22T09:52:02.693Z,1.00
2023-02-22T09:54:40.985Z,2.33
2023-02-22T09:57:13.779Z,1.05
2023-02-22T10:00:20.217Z,0.93
2023-02-22T10:03:14.749Z,1.15
2023-02-22T10:05:46.502Z,0.60
2023-02-22T10:08:19.100Z,0.65
2023-02-22T10:10:52.990Z,1.63
2023-02-22T10:13:34.881Z,1.23
2023-02-22T10:16:05.317Z,1.10
2023-02-22T10:19:03.510Z,0.82
2023-02-22T10:22:07.888Z,1.00
2023-02-22T10:24:46.661Z,0.85
2023-02-22T10:27:23.049Z,1.70
2023-02-22T10:29:57.293Z,1.20
2023-02-22T10:32:31.510Z,1.05
2023-02-22T10:35:00.008Z,1.15
2023-02-22T10:37:28.950Z,1.20
2023-02-22T10:40:17.664Z,1.33
2023-02-22T10:42:44.657Z,1.30
2023-02-22T10:45:36.084Z,1.58
2023-02-22T10:48:08.827Z,2.00
2023-02-22T10:50:40.896Z,1.20
2023-02-22T10:53:09.021Z,3.30
2023-02-22T10:55:36.642Z,2.90
2023-02-22T10:58:07.017Z,1.65
2023-02-22T11:00:39.333Z,1.35
2023-02-22T11:05:53.554Z,1.17
2023-02-22T11:08:32.997Z,1.48
2023-02-22T11:11:20.519Z,1.92
2023-02-22T11:13:55.553Z,1.30
2023-02-22T11:16:32.131Z,2.13
2023-02-22T11:19:03.231Z,2.08
2023-02-22T11:21:32.628Z,2.08
2023-02-22T11:24:09.172Z,1.77
2023-02-22T11:26:44.728Z,1.08
2023-02-22T11:29:22.298Z,0.95
2023-02-22T11:31:50.046Z,1.83
2023-02-22T11:34:33.545Z,2.40
2023-02-22T11:37:26.075Z,0.93
2023-02-22T11:40:12.284Z,1.35
2023-02-22T11:42:39.100Z,1.65
2023-02-22T11:45:14.968Z,1.92
2023-02-22T11:47:55.532Z,1.50
2023-02-22T11:50:51.868Z,2.95
2023-02-22T11:53:46.411Z,1.55
2023-02-22T11:56:38.352Z,1.40
2023-02-22T11:59:32.677Z,1.60
2023-02-22T12:02:39.967Z,2.05
2023-02-22T12:05:08.455Z,1.15
2023-02-22T12:07:48.729Z,2.45
2023-02-22T12:10:22.940Z,1.65
2023-02-22T12:13:27.206Z,3.00
2023-02-22T12:15:59.780Z,2.17
2023-02-22T12:19:05.437Z,1.45
2023-02-22T12:21:36.550Z,1.55
2023-02-22T12:24:14.538Z,1.50
2023-02-22T12:26:44.277Z,1.85
2023-02-22T12:29:58.531Z,3.85
2023-02-22T12:32:38.380Z,2.67
2023-02-22T12:35:10.993Z,1.58
2023-02-22T12:37:53.403Z,1.20
2023-02-22T12:43:00.777Z,1.40
2023-02-22T12:45:43.159Z,2.55
2023-02-22T12:48:26.466Z,2.35
2023-02-22T12:50:59.233Z,3.00
2023-02-22T12:53:31.428Z,2.10
2023-02-22T12:56:31.717Z,1.05
2023-02-22T12:59:08.266Z,0.88
2023-02-22T13:01:41.215Z,2.55
2023-02-22T13:04:20.154Z,1.15
2023-02-22T13:07:02.718Z,2.80
2023-02-22T13:09:47.601Z,1.53
2023-02-22T13:12:21.179Z,2.78
2023-02-22T13:15:03.100Z,1.00
2023-02-22T13:17:54.990Z,1.90
2023-02-22T13:20:35.044Z,2.85
2023-02-22T13:23:10.661Z,1.40
2023-02-22T13:25:52.571Z,3.08
2023-02-22T13:28:32.258Z,2.63
2023-02-22T13:31:25.490Z,1.40
2023-02-22T13:34:06.836Z,3.08
2023-02-22T13:37:05.661Z,1.70
2023-02-22T13:39:32.735Z,1.10
2023-02-22T13:42:02.401Z,1.55
2023-02-22T13:44:35.139Z,1.58
2023-02-22T13:47:17.220Z,1.10
2023-02-22T13:49:52.853Z,1.65
2023-02-22T13:52:27.906Z,1.67
2023-02-22T13:55:01.161Z,2.15
2023-02-22T13:57:29.638Z,1.67
2023-02-22T14:00:14.874Z,1.70
2023-02-22T14:03:03.141Z,2.53
2023-02-22T14:05:38.431Z,1.83
2023-02-22T14:08:06.606Z,2.40
2023-02-22T14:10:44.676Z,1.20
2023-02-22T14:13:12.444Z,2.35
2023-02-22T14:15:57.805Z,1.33
2023-02-22T14:18:45.763Z,1.00
2023-02-22T14:21:16.922Z,1.30
2023-02-22T14:23:52.421Z,1.10
2023-02-22T14:26:33.316Z,1.60
2023-02-22T14:29:23.160Z,2.75
2023-02-22T14:31:52.859Z,1.90
2023-02-22T14:34:22.898Z,1.80
2023-02-22T14:36:58.391Z,1.48
2023-02-22T14:39:38.474Z,2.60
2023-02-22T14:42:12.649Z,2.75
2023-02-22T14:45:03.140Z,2.30
2023-02-22T14:47:40.033Z,2.13
2023-02-22T14:50:45.327Z,2.08
2023-02-22T14:53:47.282Z,1.80
2023-02-22T14:56:23.200Z,1.80
2023-02-22T14:59:08.091Z,2.00
2023-02-22T15:01:52.767Z,1.48
2023-02-22T15:04:28.024Z,1.00
2023-02-22T15:06:57.175Z,1.48
2023-02-22T15:09:32.973Z,2.30
2023-02-22T15:12:14.427Z,3.33
2023-02-22T15:14:41.940Z,1.83
2023-02-22T15:17:22.594Z,1.50
2023-02-22T15:19:50.119Z,0.93
2023-02-22T15:22:24.457Z,1.80
2023-02-22T15:25:02.799Z,1.77
2023-02-22T15:27:29.785Z,1.33
2023-02-22T15:30:00.304Z,0.98
2023-02-22T15:32:53.402Z,0.95
2023-02-22T15:35:30.301Z,1.48
2023-02-22T15:38:12.362Z,1.35
2023-02-22T15:40:43.348Z,4.38
2023-02-22T15:43:28.557Z,2.20
2023-02-22T15:45:56.633Z,1.15
2023-02-22T15:48:26.282Z,1.10
2023-02-22T15:51:04.360Z,1.52
2023-02-22T15:53:45.401Z,1.20
2023-02-22T15:56:18.396Z,1.35
2023-02-22T15:58:48.271Z,1.00
2023-02-22T16:01:19.189Z,1.00
2023-02-22T16:03:50.588Z,1.00
2023-02-22T16:06:35.436Z,1.70
2023-02-22T16:09:09.864Z,1.40
2023-02-22T16:11:44.285Z,1.83
2023-02-22T16:14:44.996Z,1.20
2023-02-22T16:17:35.843Z,2.35
2023-02-22T16:20:11.744Z,1.80
2023-02-22T16:22:40.205Z,1.02
2023-02-22T16:25:18.862Z,0.77
2023-02-22T16:27:50.304Z,1.08
2023-02-22T16:30:24.390Z,2.73
2023-02-22T16:32:53.156Z,1.95
2023-02-22T16:35:19.966Z,1.60
2023-02-22T16:37:49.459Z,1.60
2023-02-22T16:40:34.670Z,1.60
2023-02-22T16:43:04.483Z,2.15
2023-02-22T16:45:31.287Z,2.70
2023-02-22T16:47:59.972Z,2.60
2023-02-22T16:50:26.903Z,3.45
2023-02-22T16:52:55.775Z,2.95
2023-02-22T16:55:23.062Z,1.00
2023-02-22T16:57:50.790Z,1.48
2023-02-22T17:00:31.352Z,1.10
2023-02-22T17:02:59.934Z,1.00
2023-02-22T17:05:27.107Z,1.90
2023-02-22T17:07:53.899Z,1.15
2023-02-22T17:10:20.804Z,0.73
2023-02-22T17:12:50.121Z,0.80
2023-02-22T17:15:21.484Z,1.00
2023-02-22T17:17:50.112Z,2.63
2023-02-22T17:20:24.959Z,1.38
2023-02-22T17:22:52.240Z,1.25
2023-02-22T17:25:23.044Z,1.83
2023-02-22T17:27:49.982Z,1.48
2023-02-22T17:30:18.136Z,2.10
2023-02-22T17:32:44.895Z,2.38
2023-02-22T17:35:11.597Z,0.73
2023-02-22T17:37:38.432Z,0.85
2023-02-22T17:40:05.465Z,0.88
2023-02-22T17:42:32.483Z,1.25
2023-02-22T17:44:59.276Z,0.82
2023-02-22T17:47:26.057Z,1.15
2023-02-22T17:49:52.958Z,1.08
2023-02-22T17:52:19.764Z,0.82
2023-02-22T17:54:46.445Z,0.75
2023-02-22T17:57:13.148Z,0.35
2023-02-22T17:59:40.690Z,0.80
2023-02-22T18:02:07.742Z,0.50
2023-02-22T18:04:39.666Z,0.60
2023-02-22T18:07:06.691Z,1.30
2023-02-22T18:09:35.756Z,0.70
2023-02-22T18:12:02.818Z,0.82
2023-02-22T18:14:29.770Z,1.20
2023-02-22T18:16:56.622Z,0.80
2023-02-22T18:19:23.467Z,1.95
2023-02-22T18:21:50.305Z,1.30
2023-02-22T18:24:17.519Z,1.83
2023-02-22T18:26:44.284Z,0.98
2023-02-22T18:29:12.438Z,1.60
2023-02-22T18:31:39.225Z,1.45
2023-02-22T18:34:06.527Z,1.15
2023-02-22T18:36:33.253Z,1.30
2023-02-22T18:38:59.950Z,1.23
2023-02-22T18:41:27.101Z,1.65
2023-02-22T18:43:55.638Z,2.33
2023-02-22T18:46:23.773Z,2.05
2023-02-22T18:48:54.317Z,1.92
2023-02-22T18:51:21.119Z,2.30
2023-02-22T18:53:50.197Z,2.35
2023-02-22T18:56:22.161Z,1.65
2023-02-22T18:58:53.830Z,2.92
2023-02-22T19:01:22.206Z,2.03
2023-02-22T19:03:51.968Z,2.45
2023-02-22T19:06:22.640Z,2.60
2023-02-22T19:08:51.174Z,2.08
2023-02-22T19:11:22.132Z,2.55
2023-02-22T19:13:51.987Z,1.98
2023-02-22T19:16:20.890Z,2.47
2023-02-22T19:18:52.637Z,3.63
2023-02-22T19:21:20.972Z,2.28
2023-02-22T19:23:49.093Z,3.33
2023-02-22T19:26:24.089Z,2.70
2023-02-22T19:28:53.568Z,4.18
2023-02-22T19:31:30.582Z,2.42
2023-02-22T19:34:05.630Z,2.72
2023-02-22T19:36:33.143Z,2.40
2023-02-22T19:39:03.498Z,2.33
2023-02-22T19:41:31.241Z,1.92
2023-02-22T19:44:03.254Z,1.95
2023-02-22T19:46:30.620Z,1.67
2023-02-22T19:49:00.671Z,1.10
2023-02-22T19:51:30.180Z,1.42
2023-02-22T19:54:07.260Z,2.22
2023-02-22T19:56:41.157Z,1.73
2023-02-22T19:59:13.615Z,1.98
2023-02-22T20:04:11.073Z,2.55
2023-02-22T20:06:42.692Z,2.20
2023-02-22T20:09:13.810Z,1.70
2023-02-22T20:11:40.811Z,1.80
2023-02-22T20:14:08.185Z,1.60
2023-02-22T20:16:37.884Z,1.95
2023-02-22T20:19:04.669Z,1.90
2023-02-22T20:21:34.007Z,2.45
2023-02-22T20:24:03.378Z,1.95
2023-02-22T20:26:32.045Z,1.80
2023-02-22T20:28:59.703Z,1.80
2023-02-22T20:31:29.396Z,1.95
2023-02-22T20:33:58.595Z,1.42
2023-02-22T20:36:26.585Z,1.60
2023-02-22T20:38:55.564Z,1.48
2023-02-22T20:41:26.478Z,2.00
2023-02-22T20:43:55.420Z,1.67
2023-02-22T20:46:24.150Z,3.08
2023-02-22T20:48:58.855Z,1.90
2023-02-22T20:51:26.986Z,1.45
2023-02-22T20:53:54.171Z,1.90
2023-02-22T20:56:23.273Z,1.45
2023-02-22T20:58:52.670Z,1.55
2023-02-22T21:01:23.563Z,1.35
2023-02-22T21:03:50.843Z,2.05
2023-02-22T21:06:21.769Z,1.52
2023-02-22T21:08:54.097Z,2.35
2023-02-22T21:13:48.433Z,2.50
2023-02-22T21:16:27.974Z,2.33
2023-02-22T21:18:58.589Z,2.08
2023-02-22T21:21:26.309Z,1.63
2023-02-22T21:23:55.806Z,2.30
2023-02-22T21:26:29.782Z,1.58
2023-02-22T21:29:00.986Z,2.15
2023-02-22T21:31:28.746Z,1.50
2023-02-22T21:33:59.471Z,4.03
2023-02-22T21:36:31.011Z,1.70
2023-02-22T21:39:02.734Z,1.63
2023-02-22T21:41:34.680Z,1.75
2023-02-22T21:44:01.677Z,1.63
2023-02-22T21:46:30.478Z,1.88
2023-02-22T21:48:58.975Z,2.10
2023-02-22T21:51:35.590Z,1.75
2023-02-22T21:54:07.406Z,2.08
2023-02-22T21:56:40.446Z,1.40
2023-02-22T21:59:23.481Z,1.63
2023-02-22T22:01:55.989Z,2.20
2023-02-22T22:04:28.647Z,2.35
2023-02-22T22:09:28.966Z,1.48
2023-02-22T22:11:58.488Z,2.03
2023-02-22T22:14:27.215Z,1.38
2023-02-22T22:16:58.776Z,1.60
2023-02-22T22:19:27.300Z,1.52
2023-02-22T22:21:54.246Z,2.72
2023-02-22T22:24:23.771Z,2.10
2023-02-22T22:26:55.017Z,2.58
2023-02-22T22:29:28.589Z,2.28
2023-02-22T22:31:55.959Z,1.70
2023-02-22T22:34:29.508Z,2.00
2023-02-22T22:37:00.596Z,1.63
2023-02-22T22:39:27.831Z,2.63
2023-02-22T22:41:55.201Z,2.90
2023-02-22T22:44:22.545Z,1.55
2023-02-22T22:46:53.630Z,2.25
2023-02-22T22:49:21.040Z,2.42
2023-02-22T22:51:48.423Z,2.22
2023-02-22T22:54:15.230Z,3.03
2023-02-22T22:56:42.172Z,1.77
2023-02-22T22:59:10.580Z,2.33
2023-02-22T23:01:40.805Z,2.45
2023-02-22T23:04:10.430Z,1.67
2023-02-22T23:06:40.163Z,2.65
2023-02-22T23:09:13.506Z,1.33
2023-02-22T23:12:16.675Z,1.60
2023-02-22T23:14:45.481Z,1.10
2023-02-22T23:17:15.384Z,1.52
2023-02-22T23:19:46.841Z,1.55
2023-02-22T23:22:14.512Z,1.20
2023-02-22T23:24:41.572Z,3.20
2023-02-22T23:27:10.992Z,1.80
2023-02-22T23:29:40.732Z,2.75
2023-02-22T23:32:10.027Z,1.65
2023-02-22T23:34:41.282Z,1.70
2023-02-22T23:37:10.637Z,1.02
2023-02-22T23:39:38.515Z,1.67
2023-02-22T23:42:09.195Z,1.73
2023-02-22T23:44:36.350Z,3.05
2023-02-22T23:47:03.998Z,2.05
2023-02-22T23:49:38.153Z,2.50
2023-02-22T23:52:06.623Z,2.22
2023-02-22T23:54:36.604Z,2.03
2023-02-22T23:57:04.633Z,1.85
2023-02-22T23:59:32.036Z,2.55
